Time;durP1;ratioP1;P1;durP2;ratioP2;P2;SDS_P1;SDS_P2;PMS_P1;PMS_P2;Temp;Humidity;BMP_temperature;BMP_pressure;BME280_temperature;BME280_humidity;BME280_pressure;Samples;Min_cycle;Max_cycle;Signal;HPM_P1;HPM_P2
2021/05/27 00:00:56;;;;;;;2.80;1.13;;;;;;;;;;4953324;29;20466;-69
2021/05/27 00:03:22;;;;;;;1.20;1.10;;;;;;;;;;4953151;29;20946;-71
2021/05/27 00:05:48;;;;;;;0.90;0.90;;;;;;;;;;4952624;28;20460;-69
2021/05/27 00:08:15;;;;;;;2.00;1.07;;;;;;;;;;4935661;29;20490;-69
2021/05/27 00:13:44;;;;;;;1.93;1.23;;;;;;;;;;4953178;29;20474;-69
2021/05/27 00:16:10;;;;;;;0.97;0.70;;;;;;;;;;4936201;29;20510;-69
2021/05/27 00:18:36;;;;;;;1.00;1.00;;;;;;;;;;4954650;29;20419;-68
2021/05/27 00:21:02;;;;;;;1.10;1.00;;;;;;;;;;4953742;29;20465;-68
2021/05/27 00:29:17;;;;;;;1.50;1.30;;;;;;;;;;4954146;29;20422;-69
2021/05/27 00:31:43;;;;;;;1.20;1.10;;;;;;;;;;4953343;29;20639;-69
2021/05/27 00:34:09;;;;;;;3.70;1.17;;;;;;;;;;4953116;29;20439;-69
2021/05/27 00:36:35;;;;;;;1.00;1.00;;;;;;;;;;4953020;29;20819;-69
2021/05/27 00:39:01;;;;;;;0.80;0.80;;;;;;;;;;4934726;29;20429;-68
2021/05/27 00:41:27;;;;;;;2.20;1.00;;;;;;;;;;4952838;29;20519;-69
2021/05/27 00:43:53;;;;;;;2.83;2.13;;;;;;;;;;4935337;29;20618;-70
2021/05/27 00:46:19;;;;;;;1.30;1.10;;;;;;;;;;4952936;29;20812;-68
2021/05/27 00:49:00;;;;;;;2.17;1.13;;;;;;;;;;4954939;28;20416;-69
2021/05/27 00:51:27;;;;;;;0.90;0.90;;;;;;;;;;4939267;29;20518;-68
2021/05/27 00:53:53;;;;;;;1.13;1.03;;;;;;;;;;4956423;29;20431;-68
2021/05/27 00:56:20;;;;;;;3.43;1.23;;;;;;;;;;4939236;29;20432;-69
2021/05/27 00:58:47;;;;;;;0.90;0.90;;;;;;;;;;4956585;29;20423;-69
2021/05/27 01:01:13;;;;;;;2.07;1.50;;;;;;;;;;4956461;29;20419;-70
2021/05/27 01:03:39;;;;;;;1.73;1.30;;;;;;;;;;4956410;29;20482;-70
2021/05/27 01:06:05;;;;;;;1.57;1.47;;;;;;;;;;4956280;28;20582;-69
2021/05/27 01:08:31;;;;;;;4.00;1.20;;;;;;;;;;4956649;29;20419;-68
2021/05/27 01:14:14;;;;;;;1.43;1.33;;;;;;;;;;4956340;29;20600;-68
2021/05/27 01:16:40;;;;;;;2.10;1.50;;;;;;;;;;4957249;29;20427;-69
2021/05/27 01:19:06;;;;;;;2.50;1.60;;;;;;;;;;4957266;29;20478;-69
2021/05/27 01:21:33;;;;;;;1.40;1.13;;;;;;;;;;4957377;29;20415;-69
2021/05/27 01:24:00;;;;;;;2.40;1.27;;;;;;;;;;4957294;29;20486;-68
2021/05/27 01:26:26;;;;;;;1.60;1.50;;;;;;;;;;4957549;29;20419;-68
2021/05/27 01:28:52;;;;;;;1.57;1.40;;;;;;;;;;4957144;29;20437;-68
2021/05/27 01:31:18;;;;;;;1.17;1.07;;;;;;;;;;4956048;29;20418;-67
2021/05/27 01:33:44;;;;;;;1.53;1.43;;;;;;;;;;4956282;29;20423;-70
2021/05/27 01:36:10;;;;;;;3.10;1.37;;;;;;;;;;4956071;29;20424;-70
2021/05/27 01:38:37;;;;;;;1.10;1.00;;;;;;;;;;4956096;29;21012;-70
2021/05/27 01:44:06;;;;;;;1.50;1.40;;;;;;;;;;4955901;29;20474;-69
2021/05/27 01:46:32;;;;;;;2.23;1.67;;;;;;;;;;4955807;29;20720;-71
2021/05/27 01:48:58;;;;;;;1.17;1.17;;;;;;;;;;4955675;29;20968;-68
2021/05/27 01:51:24;;;;;;;1.43;1.33;;;;;;;;;;4955480;29;20415;-70
2021/05/27 01:53:50;;;;;;;1.67;1.57;;;;;;;;;;4938651;29;20737;-69
2021/05/27 01:59:19;;;;;;;1.37;1.27;;;;;;;;;;4955323;28;20415;-68
2021/05/27 02:01:45;;;;;;;1.40;1.23;;;;;;;;;;4938160;29;20530;-69
2021/05/27 02:04:11;;;;;;;1.23;1.13;;;;;;;;;;4955362;29;20554;-70
2021/05/27 02:06:37;;;;;;;1.67;1.57;;;;;;;;;;4955292;29;20486;-70
2021/05/27 02:14:51;;;;;;;3.80;1.40;;;;;;;;;;4955777;29;20941;-70
2021/05/27 02:17:17;;;;;;;2.53;2.40;;;;;;;;;;4955589;29;20411;-69
2021/05/27 02:19:43;;;;;;;2.23;1.80;;;;;;;;;;4956382;29;20478;-68
2021/05/27 02:22:09;;;;;;;4.63;1.70;;;;;;;;;;4956360;29;20417;-68
2021/05/27 02:24:35;;;;;;;1.70;1.60;;;;;;;;;;4956371;29;20857;-69
2021/05/27 02:27:01;;;;;;;1.90;1.70;;;;;;;;;;4956238;29;20411;-68
2021/05/27 02:29:27;;;;;;;1.87;1.60;;;;;;;;;;4955195;29;20929;-69
2021/05/27 02:31:53;;;;;;;1.50;1.40;;;;;;;;;;4954929;29;20468;-69
2021/05/27 02:34:19;;;;;;;3.23;1.63;;;;;;;;;;4954250;29;20578;-69
2021/05/27 02:36:45;;;;;;;1.60;1.50;;;;;;;;;;4954621;29;20423;-68
2021/05/27 02:39:14;;;;;;;2.50;1.60;;;;;;;;;;4954048;29;20418;-68
2021/05/27 02:44:43;;;;;;;2.47;1.40;;;;;;;;;;4954746;29;20521;-69
2021/05/27 02:47:09;;;;;;;1.57;1.47;;;;;;;;;;4954831;29;20485;-68
2021/05/27 02:49:35;;;;;;;2.60;1.30;;;;;;;;;;4954384;29;20424;-68
2021/05/27 02:52:01;;;;;;;1.70;1.60;;;;;;;;;;4954409;29;20424;-69
2021/05/27 02:54:29;;;;;;;1.70;1.57;;;;;;;;;;4954738;29;20432;-69
2021/05/27 02:56:59;;;;;;;1.80;1.70;;;;;;;;;;4954625;29;20416;-68
2021/05/27 02:59:25;;;;;;;1.67;1.57;;;;;;;;;;4954382;29;20520;-69
2021/05/27 03:01:51;;;;;;;5.20;1.53;;;;;;;;;;4954394;29;20423;-68
2021/05/27 03:04:17;;;;;;;1.73;1.33;;;;;;;;;;4937264;29;20478;-70
2021/05/27 03:06:43;;;;;;;1.80;1.70;;;;;;;;;;4936783;29;20590;-70
2021/05/27 03:09:09;;;;;;;1.73;1.63;;;;;;;;;;4954327;29;20546;-69
2021/05/27 03:14:38;;;;;;;2.03;1.90;;;;;;;;;;4954744;29;20491;-69
2021/05/27 03:17:04;;;;;;;1.93;1.73;;;;;;;;;;4955056;29;20756;-70
2021/05/27 03:19:30;;;;;;;1.60;1.50;;;;;;;;;;4955091;29;20419;-70
2021/05/27 03:21:56;;;;;;;3.70;1.53;;;;;;;;;;4938014;29;20444;-71
2021/05/27 03:24:22;;;;;;;1.87;1.67;;;;;;;;;;4954930;29;20800;-70
2021/05/27 03:29:52;;;;;;;2.33;2.03;;;;;;;;;;4953540;29;20422;-68
2021/05/27 03:32:18;;;;;;;1.63;1.53;;;;;;;;;;4953286;29;20416;-70
2021/05/27 03:34:44;;;;;;;2.03;1.73;;;;;;;;;;4953334;29;20418;-72
2021/05/27 03:37:10;;;;;;;1.63;1.53;;;;;;;;;;4953030;29;20427;-69
2021/05/27 03:39:36;;;;;;;2.20;2.00;;;;;;;;;;4935660;29;20435;-69
2021/05/27 03:45:07;;;;;;;3.47;1.70;;;;;;;;;;4953076;29;20434;-70
2021/05/27 03:47:33;;;;;;;2.73;2.10;;;;;;;;;;4953078;29;20436;-70
2021/05/27 03:49:59;;;;;;;2.10;1.57;;;;;;;;;;4936151;29;20494;-67
2021/05/27 03:52:25;;;;;;;2.17;1.97;;;;;;;;;;4935845;29;20530;-68
2021/05/27 03:54:51;;;;;;;2.20;1.63;;;;;;;;;;4953157;29;20435;-69
2021/05/27 03:57:17;;;;;;;2.13;1.50;;;;;;;;;;4952949;29;20546;-70
2021/05/27 04:02:28;;;;;;;4.60;2.20;;;;;;;;;;4952623;29;20426;-69
2021/05/27 04:07:38;;;;;;;3.93;1.87;;;;;;;;;;4952642;29;20419;-69
2021/05/27 04:10:05;;;;;;;1.93;1.73;;;;;;;;;;4935501;29;20935;-68
2021/05/27 04:12:46;;;;;;;2.80;1.93;;;;;;;;;;4953955;29;20420;-69
2021/05/27 04:15:25;;;;;;;2.67;2.47;;;;;;;;;;4954295;29;20888;-69
2021/05/27 04:17:57;;;;;;;2.93;2.47;;;;;;;;;;4954505;29;20420;-70
2021/05/27 04:20:25;;;;;;;2.50;2.30;;;;;;;;;;4954270;29;20421;-70
2021/05/27 04:22:51;;;;;;;2.70;2.43;;;;;;;;;;4953163;29;20915;-67
2021/05/27 04:25:18;;;;;;;3.10;2.70;;;;;;;;;;4953669;29;20504;-70
2021/05/27 04:27:44;;;;;;;2.87;2.37;;;;;;;;;;4935805;29;20929;-72
2021/05/27 04:30:15;;;;;;;2.83;2.63;;;;;;;;;;4936062;29;20522;-68
2021/05/27 04:33:04;;;;;;;4.00;2.13;;;;;;;;;;4953360;29;20419;-69
2021/05/27 04:35:30;;;;;;;3.60;3.30;;;;;;;;;;4952124;29;20458;-68
2021/05/27 04:37:57;;;;;;;3.10;2.80;;;;;;;;;;4952411;29;20952;-70
2021/05/27 04:40:24;;;;;;;1.93;1.83;;;;;;;;;;4934560;29;20420;-69
2021/05/27 04:42:50;;;;;;;2.67;2.47;;;;;;;;;;4952057;29;20510;-69
2021/05/27 04:45:16;;;;;;;2.63;2.40;;;;;;;;;;4951657;29;20502;-69
2021/05/27 04:47:42;;;;;;;2.77;2.33;;;;;;;;;;4951662;29;20451;-69
2021/05/27 04:50:09;;;;;;;2.23;2.03;;;;;;;;;;4952325;29;20735;-70
2021/05/27 04:52:35;;;;;;;1.90;1.80;;;;;;;;;;4935596;29;20427;-70
2021/05/27 04:55:01;;;;;;;3.33;2.17;;;;;;;;;;4952849;29;20443;-70
2021/05/27 05:00:31;;;;;;;2.90;2.33;;;;;;;;;;4952903;29;20794;-70
2021/05/27 05:02:58;;;;;;;1.70;1.60;;;;;;;;;;4935567;29;20478;-69
2021/05/27 05:05:24;;;;;;;1.60;1.50;;;;;;;;;;4952501;29;20842;-69
2021/05/27 05:07:50;;;;;;;7.73;1.60;;;;;;;;;;4952653;29;20439;-67
2021/05/27 05:10:17;;;;;;;2.43;1.80;;;;;;;;;;4952633;29;20424;-73
2021/05/27 05:15:49;;;;;;;2.40;2.20;;;;;;;;;;4952584;29;20422;-73
2021/05/27 05:18:15;;;;;;;1.63;1.53;;;;;;;;;;4952893;29;20723;-72
2021/05/27 05:20:50;;;;;;;1.30;1.20;;;;;;;;;;4952679;29;20424;-69
2021/05/27 05:23:17;;;;;;;1.60;1.50;;;;;;;;;;4935206;29;20549;-69
2021/05/27 05:25:43;;;;;;;1.63;1.53;;;;;;;;;;4952639;29;20451;-73
2021/05/27 05:28:11;;;;;;;1.40;1.30;;;;;;;;;;4952513;29;20447;-70
2021/05/27 05:30:38;;;;;;;2.20;1.60;;;;;;;;;;4952753;29;20423;-69
2021/05/27 05:33:04;;;;;;;1.97;1.63;;;;;;;;;;4952846;29;20420;-71
2021/05/27 05:35:30;;;;;;;2.67;1.70;;;;;;;;;;4955402;28;20442;-73
2021/05/27 05:37:56;;;;;;;1.43;1.30;;;;;;;;;;4955838;29;20464;-73
2021/05/27 05:40:23;;;;;;;4.60;1.60;;;;;;;;;;4956878;29;20423;-71
2021/05/27 05:45:53;;;;;;;1.40;1.30;;;;;;;;;;4956516;29;20973;-69
2021/05/27 05:48:19;;;;;;;4.07;3.70;;;;;;;;;;4956937;29;20424;-71
2021/05/27 05:50:45;;;;;;;2.00;1.43;;;;;;;;;;4956277;29;20411;-73
2021/05/27 05:53:13;;;;;;;2.70;1.50;;;;;;;;;;4955460;29;20416;-71
2021/05/27 05:55:39;;;;;;;2.83;2.00;;;;;;;;;;4955670;29;20408;-70
2021/05/27 06:01:09;;;;;;;1.70;1.60;;;;;;;;;;4955507;29;20984;-69
2021/05/27 06:03:35;;;;;;;4.43;1.40;;;;;;;;;;4955431;29;20780;-68
2021/05/27 06:06:01;;;;;;;1.30;1.20;;;;;;;;;;4955170;28;20997;-68
2021/05/27 06:08:27;;;;;;;2.30;1.70;;;;;;;;;;4955324;29;20415;-69
2021/05/27 06:10:53;;;;;;;3.13;2.70;;;;;;;;;;4955045;29;20466;-71
2021/05/27 06:13:20;;;;;;;3.20;2.37;;;;;;;;;;4955017;29;20428;-69
2021/05/27 06:15:46;;;;;;;6.13;1.70;;;;;;;;;;4955040;29;20420;-69
2021/05/27 06:18:16;;;;;;;2.00;1.30;;;;;;;;;;4937650;29;20482;-68
2021/05/27 06:20:44;;;;;;;1.30;1.20;;;;;;;;;;4937361;29;20518;-71
2021/05/27 06:23:10;;;;;;;2.27;1.53;;;;;;;;;;4954682;29;20475;-70
2021/05/27 06:25:38;;;;;;;1.80;1.70;;;;;;;;;;4954869;29;20730;-69
2021/05/27 06:31:08;;;;;;;4.40;1.63;;;;;;;;;;4954914;29;20419;-69
2021/05/27 06:33:35;;;;;;;1.47;1.37;;;;;;;;;;4954787;29;20403;-71
2021/05/27 06:36:01;;;;;;;2.50;1.70;;;;;;;;;;4954562;29;20440;-70
2021/05/27 06:38:27;;;;;;;1.70;1.50;;;;;;;;;;4955486;29;20415;-69
2021/05/27 06:40:53;;;;;;;1.80;1.70;;;;;;;;;;4956104;29;20899;-69
2021/05/27 06:43:19;;;;;;;4.80;1.30;;;;;;;;;;4955608;29;20803;-70
2021/05/27 06:45:45;;;;;;;3.70;2.03;;;;;;;;;;4954579;28;20428;-70
2021/05/27 06:48:13;;;;;;;1.47;1.37;;;;;;;;;;4953988;29;20499;-73
2021/05/27 06:50:42;;;;;;;2.80;1.20;;;;;;;;;;4936551;29;20459;-71
2021/05/27 06:53:11;;;;;;;2.30;1.83;;;;;;;;;;4954279;29;20490;-72
2021/05/27 06:55:39;;;;;;;1.30;1.20;;;;;;;;;;4953763;29;20423;-68
2021/05/27 06:58:09;;;;;;;3.37;1.80;;;;;;;;;;4953571;29;20415;-69
2021/05/27 07:00:36;;;;;;;1.80;1.70;;;;;;;;;;4953355;29;20515;-71
2021/05/27 07:03:03;;;;;;;1.63;1.50;;;;;;;;;;4952991;29;20792;-68
2021/05/27 07:05:29;;;;;;;2.83;1.30;;;;;;;;;;4952844;29;20918;-70
2021/05/27 07:07:56;;;;;;;1.50;1.30;;;;;;;;;;4953284;29;20512;-68
2021/05/27 07:10:22;;;;;;;2.10;1.63;;;;;;;;;;4953055;29;20415;-70
2021/05/27 07:12:52;;;;;;;9.97;1.57;;;;;;;;;;4935823;29;20949;-68
2021/05/27 07:15:20;;;;;;;2.40;1.53;;;;;;;;;;4952851;29;20451;-69
2021/05/27 07:17:46;;;;;;;2.40;1.43;;;;;;;;;;4952963;29;20422;-69
2021/05/27 07:20:13;;;;;;;2.10;1.37;;;;;;;;;;4953468;29;20481;-70
2021/05/27 07:22:39;;;;;;;1.30;1.20;;;;;;;;;;4952995;29;20423;-70
2021/05/27 07:25:06;;;;;;;1.57;1.47;;;;;;;;;;4952621;29;20471;-69
2021/05/27 07:27:32;;;;;;;3.53;1.40;;;;;;;;;;4952652;29;20416;-70
2021/05/27 07:29:58;;;;;;;2.10;1.47;;;;;;;;;;4952047;29;20853;-69
2021/05/27 07:32:24;;;;;;;3.10;1.60;;;;;;;;;;4952669;29;20771;-70
2021/05/27 07:34:50;;;;;;;1.93;1.10;;;;;;;;;;4952547;29;20431;-70
2021/05/27 07:37:16;;;;;;;0.97;0.97;;;;;;;;;;4953325;29;20427;-69
2021/05/27 07:39:42;;;;;;;1.00;0.80;;;;;;;;;;4953787;29;20503;-68
2021/05/27 07:42:09;;;;;;;1.73;1.33;;;;;;;;;;4953547;29;20793;-68
2021/05/27 07:44:35;;;;;;;1.33;1.20;;;;;;;;;;4953159;29;20471;-69
2021/05/27 07:47:01;;;;;;;1.97;1.30;;;;;;;;;;4952905;29;20504;-69
2021/05/27 07:49:28;;;;;;;1.00;0.93;;;;;;;;;;4953161;29;20423;-69
2021/05/27 07:51:57;;;;;;;2.67;1.20;;;;;;;;;;4952434;29;20477;-69
2021/05/27 07:54:24;;;;;;;1.20;1.10;;;;;;;;;;4952299;29;20498;-72
2021/05/27 07:56:50;;;;;;;0.97;0.80;;;;;;;;;;4952314;28;20419;-69
2021/05/27 08:02:19;;;;;;;1.50;1.40;;;;;;;;;;4952029;29;20470;-70
2021/05/27 08:04:45;;;;;;;2.33;1.13;;;;;;;;;;4951723;29;20786;-70
2021/05/27 08:07:11;;;;;;;1.63;1.00;;;;;;;;;;4951625;29;20427;-69
2021/05/27 08:09:37;;;;;;;0.90;0.90;;;;;;;;;;4952228;29;20518;-68
2021/05/27 08:12:05;;;;;;;1.60;1.23;;;;;;;;;;4934519;29;20442;-68
2021/05/27 08:17:35;;;;;;;2.83;1.10;;;;;;;;;;4951763;29;20490;-69
2021/05/27 08:20:01;;;;;;;4.60;1.23;;;;;;;;;;4952427;29;20423;-68
2021/05/27 08:22:27;;;;;;;1.53;1.10;;;;;;;;;;4952739;29;20430;-68
2021/05/27 08:24:54;;;;;;;1.00;0.90;;;;;;;;;;4952679;29;20561;-70
2021/05/27 08:27:20;;;;;;;1.53;1.00;;;;;;;;;;4953201;29;20420;-69
2021/05/27 08:29:46;;;;;;;1.67;1.00;;;;;;;;;;4952559;29;20511;-68
2021/05/27 08:32:13;;;;;;;1.03;1.03;;;;;;;;;;4935862;29;20528;-69
2021/05/27 08:34:39;;;;;;;1.43;1.30;;;;;;;;;;4935609;29;20498;-68
2021/05/27 08:37:05;;;;;;;1.20;1.00;;;;;;;;;;4953624;29;20460;-68
2021/05/27 08:39:31;;;;;;;1.93;1.10;;;;;;;;;;4953865;29;20430;-68
2021/05/27 08:41:57;;;;;;;1.53;1.20;;;;;;;;;;4954179;29;20514;-71
2021/05/27 08:47:28;;;;;;;1.50;1.10;;;;;;;;;;4953873;29;20498;-69
2021/05/27 08:49:55;;;;;;;2.23;1.03;;;;;;;;;;4953751;29;20411;-68
2021/05/27 08:52:21;;;;;;;1.77;1.10;;;;;;;;;;4952306;29;20419;-70
2021/05/27 08:54:47;;;;;;;5.40;1.40;;;;;;;;;;4935136;29;20490;-69
2021/05/27 08:57:13;;;;;;;1.47;1.37;;;;;;;;;;4952520;29;20784;-71
2021/05/27 09:03:00;;;;;;;1.23;0.90;;;;;;;;;;4952440;29;20494;-68
2021/05/27 09:05:27;;;;;;;1.37;1.07;;;;;;;;;;4952051;29;20505;-71
2021/05/27 09:07:53;;;;;;;1.53;1.00;;;;;;;;;;4952425;28;20412;-70
2021/05/27 09:10:19;;;;;;;1.10;1.00;;;;;;;;;;4954927;29;20419;-70
2021/05/27 09:12:45;;;;;;;1.00;0.90;;;;;;;;;;4955963;29;20415;-69
2021/05/27 09:15:17;;;;;;;1.20;1.13;;;;;;;;;;4955938;29;20505;-69
2021/05/27 09:17:44;;;;;;;2.40;1.33;;;;;;;;;;4955768;29;20415;-68
2021/05/27 09:20:13;;;;;;;3.40;1.07;;;;;;;;;;4956250;29;20448;-68
2021/05/27 09:22:40;;;;;;;1.20;1.10;;;;;;;;;;4955847;29;20430;-69
2021/05/27 09:25:07;;;;;;;1.60;1.00;;;;;;;;;;4955812;29;20521;-68
2021/05/27 09:34:04;;;;;;;2.10;0.90;;;;;;;;;;4955529;29;20453;-70
2021/05/27 09:36:30;;;;;;;2.13;1.00;;;;;;;;;;4956189;29;20415;-68
2021/05/27 09:39:01;;;;;;;3.27;1.27;;;;;;;;;;4956853;29;20423;-71
2021/05/27 09:41:28;;;;;;;2.30;0.97;;;;;;;;;;4956733;29;20495;-69
2021/05/27 09:43:55;;;;;;;0.90;0.90;;;;;;;;;;4956543;29;20467;-70
2021/05/27 09:46:22;;;;;;;5.03;1.50;;;;;;;;;;4956270;29;20895;-68
2021/05/27 09:49:02;;;;;;;2.73;1.10;;;;;;;;;;4956209;29;20911;-70
2021/05/27 09:51:29;;;;;;;2.40;1.40;;;;;;;;;;4955014;29;20427;-72
2021/05/27 09:53:56;;;;;;;2.23;1.20;;;;;;;;;;4955087;29;20423;-69
2021/05/27 09:56:35;;;;;;;2.50;1.10;;;;;;;;;;4951846;29;20423;-71
2021/05/27 09:59:02;;;;;;;2.87;1.20;;;;;;;;;;4953308;29;20429;-72
2021/05/27 10:01:30;;;;;;;1.57;1.10;;;;;;;;;;4954049;29;20419;-71
2021/05/27 10:04:10;;;;;;;3.10;1.17;;;;;;;;;;4954484;29;20471;-71
2021/05/27 10:06:36;;;;;;;3.50;1.00;;;;;;;;;;4954030;29;20494;-69
2021/05/27 10:09:04;;;;;;;2.57;1.20;;;;;;;;;;4953917;29;20515;-69
2021/05/27 10:11:30;;;;;;;1.63;1.10;;;;;;;;;;4954235;29;20439;-73
2021/05/27 10:13:56;;;;;;;1.70;0.93;;;;;;;;;;4936273;29;20805;-69
2021/05/27 10:16:23;;;;;;;1.90;1.10;;;;;;;;;;4954190;29;20416;-72
2021/05/27 10:18:51;;;;;;;0.73;0.60;;;;;;;;;;4953891;29;20431;-68
2021/05/27 10:21:17;;;;;;;3.23;0.90;;;;;;;;;;4936671;29;20443;-70
2021/05/27 10:23:44;;;;;;;1.10;1.00;;;;;;;;;;4952821;29;21040;-72
2021/05/27 10:26:10;;;;;;;5.47;1.10;;;;;;;;;;4934157;29;20506;-71
2021/05/27 10:28:37;;;;;;;1.10;1.00;;;;;;;;;;4951500;29;20491;-69
2021/05/27 10:31:04;;;;;;;1.60;0.90;;;;;;;;;;4950663;29;20490;-71
2021/05/27 10:33:40;;;;;;;2.20;1.10;;;;;;;;;;4951883;29;20423;-70
2021/05/27 10:36:07;;;;;;;0.90;0.90;;;;;;;;;;4953260;29;20462;-69
2021/05/27 10:38:39;;;;;;;1.77;1.13;;;;;;;;;;4952561;29;20566;-68
2021/05/27 10:41:06;;;;;;;2.50;1.33;;;;;;;;;;4951314;29;20430;-69
2021/05/27 10:43:33;;;;;;;1.73;1.00;;;;;;;;;;4951691;29;20529;-67
2021/05/27 10:49:02;;;;;;;0.80;0.80;;;;;;;;;;4950967;29;20410;-69
2021/05/27 10:51:31;;;;;;;1.53;1.03;;;;;;;;;;4952559;29;20478;-68
2021/05/27 10:53:58;;;;;;;2.20;0.90;;;;;;;;;;4936246;29;20444;-74
2021/05/27 10:56:33;;;;;;;0.73;0.73;;;;;;;;;;4954288;29;20424;-77
2021/05/27 10:58:59;;;;;;;0.90;0.80;;;;;;;;;;4953693;29;20416;-76
2021/05/27 11:01:32;;;;;;;3.90;1.10;;;;;;;;;;4953391;29;20415;-75
2021/05/27 11:03:59;;;;;;;1.00;1.00;;;;;;;;;;4950458;29;20522;-76
2021/05/27 11:06:25;;;;;;;0.90;0.90;;;;;;;;;;4953410;29;20479;-78
2021/05/27 11:11:41;;;;;;;1.60;1.20;;;;;;;;;;4954147;29;20879;-75
2021/05/27 11:14:27;;;;;;;2.97;1.03;;;;;;;;;;4936995;29;20435;-77
2021/05/27 11:17:03;;;;;;;0.87;0.87;;;;;;;;;;4953683;29;20420;-77
2021/05/27 11:19:47;;;;;;;1.73;1.17;;;;;;;;;;4953216;29;20439;-76
2021/05/27 11:22:29;;;;;;;1.83;1.30;;;;;;;;;;4936263;29;20435;-75
2021/05/27 11:25:10;;;;;;;1.00;1.00;;;;;;;;;;4935909;29;20479;-76
2021/05/27 11:27:50;;;;;;;1.20;1.10;;;;;;;;;;4953494;29;20416;-77
2021/05/27 11:30:17;;;;;;;1.43;1.10;;;;;;;;;;4953523;29;20446;-76
2021/05/27 11:32:44;;;;;;;2.03;1.00;;;;;;;;;;4953082;28;20400;-77
2021/05/27 11:35:10;;;;;;;0.83;0.70;;;;;;;;;;4954384;29;20499;-75
2021/05/27 11:37:38;;;;;;;1.23;1.13;;;;;;;;;;4954127;29;20454;-75
2021/05/27 11:40:05;;;;;;;1.10;0.90;;;;;;;;;;4954371;29;20415;-75
2021/05/27 11:42:31;;;;;;;1.80;0.90;;;;;;;;;;4954454;29;20427;-77
2021/05/27 11:45:01;;;;;;;1.23;0.77;;;;;;;;;;4954510;29;20798;-76
2021/05/27 11:47:27;;;;;;;1.33;1.10;;;;;;;;;;4954405;29;20404;-76
2021/05/27 11:50:06;;;;;;;2.30;0.90;;;;;;;;;;4953204;29;20411;-75
2021/05/27 11:52:32;;;;;;;1.57;1.23;;;;;;;;;;4952927;29;20423;-76
2021/05/27 11:54:58;;;;;;;2.93;1.20;;;;;;;;;;4953025;29;20419;-76
2021/05/27 11:57:43;;;;;;;0.90;0.90;;;;;;;;;;4952954;29;20506;-75
2021/05/27 12:00:10;;;;;;;1.50;1.40;;;;;;;;;;4953023;29;20912;-78
2021/05/27 12:02:46;;;;;;;1.00;0.90;;;;;;;;;;4952970;29;20416;-77
2021/05/27 12:05:27;;;;;;;0.80;0.80;;;;;;;;;;4935127;29;20576;-76
2021/05/27 12:07:57;;;;;;;2.37;1.10;;;;;;;;;;4936141;29;20462;-76
2021/05/27 12:10:23;;;;;;;2.77;1.30;;;;;;;;;;4953388;29;20408;-76
2021/05/27 12:12:49;;;;;;;1.23;0.90;;;;;;;;;;4953611;29;20461;-76
2021/05/27 12:15:16;;;;;;;1.27;1.17;;;;;;;;;;4953331;29;20882;-77
2021/05/27 12:17:45;;;;;;;1.53;1.23;;;;;;;;;;4953470;29;20510;-76
2021/05/27 12:20:17;;;;;;;1.10;0.70;;;;;;;;;;4936355;29;20436;-74
2021/05/27 12:23:04;;;;;;;2.17;1.03;;;;;;;;;;4936073;29;20549;-74
2021/05/27 12:25:31;;;;;;;0.90;0.90;;;;;;;;;;4953280;29;20472;-76
2021/05/27 12:27:58;;;;;;;2.03;0.97;;;;;;;;;;4953380;29;20424;-78
2021/05/27 12:30:26;;;;;;;1.27;1.03;;;;;;;;;;4953208;29;20446;-75
2021/05/27 12:32:53;;;;;;;1.60;1.10;;;;;;;;;;4953035;29;20435;-78
2021/05/27 12:35:29;;;;;;;0.80;0.80;;;;;;;;;;4953799;29;20412;-75
2021/05/27 12:37:58;;;;;;;1.90;0.60;;;;;;;;;;4936452;29;20465;-75
2021/05/27 12:40:45;;;;;;;1.30;0.73;;;;;;;;;;4953935;29;20510;-70
2021/05/27 12:43:24;;;;;;;2.67;1.27;;;;;;;;;;4946420;28;20546;-76
2021/05/27 12:45:50;;;;;;;1.40;1.00;;;;;;;;;;4957725;29;20427;-76
2021/05/27 12:48:21;;;;;;;1.03;0.60;;;;;;;;;;4956268;29;20455;-76
2021/05/27 12:50:56;;;;;;;1.97;1.07;;;;;;;;;;4938982;29;20443;-79
2021/05/27 12:53:34;;;;;;;1.27;1.03;;;;;;;;;;4956246;29;20443;-82
2021/05/27 12:56:12;;;;;;;2.63;0.97;;;;;;;;;;4957218;29;20415;-79
2021/05/27 12:58:39;;;;;;;1.20;1.00;;;;;;;;;;4956515;29;20782;-76
2021/05/27 13:01:06;;;;;;;3.03;0.87;;;;;;;;;;4955936;29;20420;-76
2021/05/27 13:03:42;;;;;;;2.20;1.13;;;;;;;;;;4956025;29;20463;-76
2021/05/27 13:06:09;;;;;;;0.80;0.80;;;;;;;;;;4955527;28;20483;-78
2021/05/27 13:08:36;;;;;;;1.10;0.87;;;;;;;;;;4938482;29;20506;-78
2021/05/27 13:11:20;;;;;;;0.90;0.90;;;;;;;;;;4956259;29;20914;-76
2021/05/27 13:13:47;;;;;;;1.00;0.80;;;;;;;;;;4956206;29;20438;-77
2021/05/27 13:16:31;;;;;;;1.10;1.00;;;;;;;;;;4955857;29;20419;-74
2021/05/27 13:19:00;;;;;;;0.83;0.83;;;;;;;;;;4938500;29;20438;-77
2021/05/27 13:21:36;;;;;;;1.73;0.90;;;;;;;;;;4955428;29;20463;-75
2021/05/27 13:24:18;;;;;;;1.07;0.80;;;;;;;;;;4955407;29;20807;-75
2021/05/27 13:26:48;;;;;;;1.83;1.73;;;;;;;;;;4955891;29;20419;-75
2021/05/27 13:29:14;;;;;;;1.03;0.93;;;;;;;;;;4955670;29;20749;-77
2021/05/27 13:31:42;;;;;;;2.30;0.83;;;;;;;;;;4955258;29;20482;-75
2021/05/27 13:34:08;;;;;;;1.07;0.90;;;;;;;;;;4956051;29;20478;-76
2021/05/27 13:36:41;;;;;;;1.77;1.00;;;;;;;;;;4956020;29;20408;-75
2021/05/27 13:39:33;;;;;;;1.37;1.00;;;;;;;;;;4955903;29;20427;-76
2021/05/27 13:41:59;;;;;;;0.80;0.80;;;;;;;;;;4954291;29;20627;-75
2021/05/27 13:44:25;;;;;;;0.70;0.70;;;;;;;;;;4955791;29;20567;-79
2021/05/27 13:46:52;;;;;;;1.20;1.10;;;;;;;;;;4954973;29;20494;-76
2021/05/27 13:49:19;;;;;;;1.53;0.70;;;;;;;;;;4954677;29;21068;-78
2021/05/27 13:51:46;;;;;;;4.43;0.90;;;;;;;;;;4954360;29;20452;-78
2021/05/27 13:54:14;;;;;;;0.97;0.80;;;;;;;;;;4954554;28;20518;-75
2021/05/27 13:56:40;;;;;;;1.57;0.90;;;;;;;;;;4954305;29;20462;-78
2021/05/27 13:59:07;;;;;;;1.23;1.07;;;;;;;;;;4954347;29;20509;-77
2021/05/27 14:01:33;;;;;;;1.83;0.90;;;;;;;;;;4936725;29;20443;-75
2021/05/27 14:03:59;;;;;;;1.10;0.90;;;;;;;;;;4953910;29;20498;-79
2021/05/27 14:06:25;;;;;;;1.00;0.60;;;;;;;;;;4954138;28;20471;-79
2021/05/27 14:08:51;;;;;;;0.90;0.90;;;;;;;;;;4954267;29;20570;-78
2021/05/27 14:11:17;;;;;;;2.60;0.90;;;;;;;;;;4954030;29;20418;-75
2021/05/27 14:13:44;;;;;;;1.87;1.33;;;;;;;;;;4953855;29;20760;-76
2021/05/27 14:16:10;;;;;;;1.53;1.00;;;;;;;;;;4936850;29;20436;-79
2021/05/27 14:18:37;;;;;;;2.87;1.00;;;;;;;;;;4954261;29;20496;-76
2021/05/27 14:21:03;;;;;;;0.60;0.60;;;;;;;;;;4953729;29;20435;-78
2021/05/27 14:23:29;;;;;;;2.13;0.80;;;;;;;;;;4953621;29;20499;-78
2021/05/27 14:25:55;;;;;;;1.70;1.30;;;;;;;;;;4953956;29;20451;-78
2021/05/27 14:28:22;;;;;;;1.80;1.07;;;;;;;;;;4955022;29;20412;-76
2021/05/27 14:30:48;;;;;;;1.63;0.93;;;;;;;;;;4955249;29;20427;-75
2021/05/27 14:33:14;;;;;;;0.77;0.77;;;;;;;;;;4955758;29;20420;-74
2021/05/27 14:35:40;;;;;;;0.77;0.70;;;;;;;;;;4955594;29;20470;-76
2021/05/27 14:38:06;;;;;;;0.73;0.73;;;;;;;;;;4955722;29;20782;-77
2021/05/27 14:40:32;;;;;;;0.77;0.77;;;;;;;;;;4955694;29;20418;-75
2021/05/27 14:43:00;;;;;;;1.97;1.00;;;;;;;;;;4952602;29;20894;-79
2021/05/27 14:45:29;;;;;;;1.10;0.93;;;;;;;;;;4954592;29;20770;-79
2021/05/27 14:51:00;;;;;;;3.50;1.00;;;;;;;;;;4954024;29;20484;-79
2021/05/27 14:53:27;;;;;;;1.03;0.93;;;;;;;;;;4954319;29;20908;-80
2021/05/27 14:55:53;;;;;;;1.83;1.00;;;;;;;;;;4936730;29;20431;-78
2021/05/27 14:58:20;;;;;;;0.90;0.70;;;;;;;;;;4936824;29;20506;-78
2021/05/27 15:00:49;;;;;;;3.77;1.20;;;;;;;;;;4936794;29;20444;-76
2021/05/27 15:06:19;;;;;;;2.30;0.87;;;;;;;;;;4953409;28;20466;-78
2021/05/27 15:08:45;;;;;;;1.57;1.13;;;;;;;;;;4953919;29;20445;-77
2021/05/27 15:11:11;;;;;;;1.17;0.83;;;;;;;;;;4952533;29;20415;-77
2021/05/27 15:13:37;;;;;;;1.30;1.20;;;;;;;;;;4952468;29;20474;-74
2021/05/27 15:16:03;;;;;;;1.67;0.90;;;;;;;;;;4952813;29;20733;-77
2021/05/27 15:21:34;;;;;;;1.20;1.10;;;;;;;;;;4952803;29;20498;-76
2021/05/27 15:24:00;;;;;;;1.73;0.90;;;;;;;;;;4935455;29;20592;-77
2021/05/27 15:26:26;;;;;;;1.43;0.80;;;;;;;;;;4952666;29;20432;-76
2021/05/27 15:28:52;;;;;;;1.77;1.00;;;;;;;;;;4935916;29;20435;-77
2021/05/27 15:31:18;;;;;;;1.90;1.77;;;;;;;;;;4953495;29;20950;-76
2021/05/27 15:33:44;;;;;;;2.90;1.50;;;;;;;;;;4953367;29;20430;-75
2021/05/27 15:36:11;;;;;;;1.63;0.70;;;;;;;;;;4936158;29;20435;-77
2021/05/27 15:38:37;;;;;;;1.10;1.00;;;;;;;;;;4953653;29;20431;-73
2021/05/27 15:41:03;;;;;;;1.00;0.90;;;;;;;;;;4953478;29;20418;-77
2021/05/27 15:43:31;;;;;;;1.70;1.60;;;;;;;;;;4952891;29;20566;-76
2021/05/27 15:45:59;;;;;;;1.20;1.00;;;;;;;;;;4935729;29;20767;-74
2021/05/27 15:51:28;;;;;;;3.83;1.30;;;;;;;;;;4952401;29;20426;-76
2021/05/27 15:53:56;;;;;;;0.80;0.80;;;;;;;;;;4952336;29;20424;-75
2021/05/27 15:56:22;;;;;;;1.17;0.83;;;;;;;;;;4952612;29;20430;-77
2021/05/27 15:58:48;;;;;;;1.27;0.97;;;;;;;;;;4952336;29;20419;-74
2021/05/27 16:01:17;;;;;;;1.00;0.80;;;;;;;;;;4952258;29;20512;-75
2021/05/27 16:06:46;;;;;;;2.70;1.00;;;;;;;;;;4952120;28;20496;-73
2021/05/27 16:09:12;;;;;;;0.87;0.87;;;;;;;;;;4935181;29;20757;-75
2021/05/27 16:11:41;;;;;;;0.70;0.70;;;;;;;;;;4952433;29;20416;-77
2021/05/27 16:14:08;;;;;;;0.97;0.83;;;;;;;;;;4952182;29;20420;-74
2021/05/27 16:16:34;;;;;;;1.87;0.90;;;;;;;;;;4952074;29;20415;-75
2021/05/27 16:19:00;;;;;;;2.20;0.80;;;;;;;;;;4952026;28;20407;-74
2021/05/27 16:21:27;;;;;;;1.50;1.13;;;;;;;;;;4951991;29;20442;-74
2021/05/27 16:23:53;;;;;;;1.30;0.83;;;;;;;;;;4952286;29;20463;-76